createdAt,value
2019-01-05T00:00:22.889Z,95.40
2019-01-05T00:03:25.209Z,95.50
2019-01-05T00:09:31.811Z,95.40
2019-01-05T00:12:33.691Z,95.40
2019-01-05T00:15:54.626Z,95.40
2019-01-05T00:19:16.662Z,95.30
2019-01-05T00:22:23.481Z,95.30
2019-01-05T00:25:45.541Z,95.30
2019-01-05T00:31:53.337Z,95.20
2019-01-05T00:34:55.595Z,95.20
2019-01-05T00:41:02.413Z,95.10
2019-01-05T00:50:35.041Z,95.00
2019-01-05T00:53:38.587Z,95.00
2019-01-05T00:57:01.759Z,95.00
2019-01-05T01:03:08.520Z,95.00
2019-01-05T01:09:36.233Z,95.30
2019-01-05T01:12:40.305Z,94.90
2019-01-05T01:16:01.524Z,94.90
2019-01-05T01:22:07.648Z,94.80
2019-01-05T01:28:14.420Z,94.70
2019-01-05T01:31:18.844Z,94.70
2019-01-05T01:34:40.393Z,94.70
2019-01-05T01:37:47.366Z,94.70
2019-01-05T01:44:22.045Z,94.50
2019-01-05T01:47:22.875Z,94.60
2019-01-05T01:50:55.767Z,94.60
2019-01-05T02:01:11.433Z,94.50
2019-01-05T02:04:15.149Z,94.40
2019-01-05T02:10:38.691Z,94.30
2019-01-05T02:16:46.727Z,94.30
2019-01-05T02:20:09.866Z,94.30
2019-01-05T02:23:33.284Z,94.30
2019-01-05T02:26:35.723Z,94.20
2019-01-05T02:32:51.081Z,94.20
2019-01-05T02:36:13.013Z,94.10
2019-01-05T02:39:39.760Z,94.10
2019-01-05T02:43:00.306Z,94.00
2019-01-05T02:46:24.280Z,94.00
2019-01-05T02:49:45.622Z,94.00
2019-01-05T02:52:49.574Z,94.00
2019-01-05T02:58:53.372Z,93.90
2019-01-05T03:02:14.708Z,93.80
2019-01-05T03:08:20.341Z,94.10
2019-01-05T03:11:41.394Z,94.30
2019-01-05T03:14:53.321Z,94.30
2019-01-05T03:18:00.671Z,94.00
2019-01-05T03:21:21.606Z,94.10
2019-01-05T03:24:48.239Z,94.00
2019-01-05T03:28:09.818Z,94.00
2019-01-05T03:34:51.191Z,93.90
2019-01-05T03:37:58.412Z,93.90
2019-01-05T03:41:21.593Z,93.90
2019-01-05T03:47:25.357Z,93.90
2019-01-05T03:54:08.599Z,93.90
2019-01-05T03:57:05.402Z,93.90
2019-01-05T04:03:17.651Z,93.80
2019-01-05T04:06:40.556Z,93.70
2019-01-05T04:10:06.608Z,93.70
2019-01-05T04:13:25.330Z,93.70
2019-01-05T04:16:46.452Z,93.70
2019-01-05T04:19:48.001Z,93.70
2019-01-05T04:23:12.191Z,93.50
2019-01-05T04:29:37.863Z,93.60
2019-01-05T04:32:38.809Z,93.40
2019-01-05T04:35:40.941Z,93.50
2019-01-05T04:38:42.105Z,93.40
2019-01-05T04:42:02.557Z,93.40
2019-01-05T04:55:12.236Z,93.60
2019-01-05T04:58:31.023Z,93.60
2019-01-05T05:01:51.704Z,93.60
2019-01-05T05:05:16.815Z,93.70
2019-01-05T05:08:37.549Z,93.70
2019-01-05T05:11:58.322Z,93.70
2019-01-05T05:14:59.521Z,93.60
2019-01-05T05:18:00.551Z,93.70
2019-01-05T05:21:20.875Z,93.60
2019-01-05T05:24:21.668Z,93.50
2019-01-05T05:27:23.207Z,93.60
2019-01-05T05:30:45.289Z,93.50
2019-01-05T05:37:53.609Z,93.50
2019-01-05T05:41:21.157Z,93.50
2019-01-05T05:44:48.916Z,93.40
2019-01-05T05:48:16.435Z,93.50
2019-01-05T05:51:44.030Z,93.50
2019-01-05T05:55:11.518Z,93.50
2019-01-05T05:58:38.982Z,93.50
2019-01-05T06:02:06.546Z,93.60
2019-01-05T06:05:26.809Z,93.60
2019-01-05T06:08:47.037Z,93.70
2019-01-05T06:18:09.261Z,93.80
2019-01-05T06:21:30.193Z,93.80
2019-01-05T06:24:42.556Z,94.00
2019-01-05T06:27:52.948Z,94.10
2019-01-05T06:30:54.389Z,94.20
2019-01-05T06:33:56.301Z,94.30
2019-01-05T06:37:00.081Z,94.30
2019-01-05T06:40:21.673Z,94.50
2019-01-05T06:43:23.602Z,94.80
2019-01-05T06:46:31.184Z,95.10
2019-01-05T06:49:52.353Z,95.30
2019-01-05T06:59:22.080Z,95.90
2019-01-05T07:08:48.409Z,96.40
2019-01-05T07:11:49.278Z,96.30
2019-01-05T07:15:10.390Z,96.30
2019-01-05T07:18:11.732Z,96.30
2019-01-05T07:21:14.023Z,96.40
2019-01-05T07:27:20.155Z,96.70
2019-01-05T07:33:25.320Z,96.90
2019-01-05T07:39:30.033Z,97.20
2019-01-05T07:49:45.062Z,97.20
2019-01-05T07:52:45.903Z,97.30
2019-01-05T07:55:48.372Z,97.40
2019-01-05T07:58:49.287Z,97.70
2019-01-05T08:01:50.463Z,98.00
2019-01-05T08:04:51.692Z,98.20
2019-01-05T08:07:52.924Z,98.20
2019-01-05T08:10:53.807Z,98.40
2019-01-05T08:14:15.566Z,98.50
2019-01-05T08:17:22.337Z,98.60
2019-01-05T08:20:48.311Z,98.60
2019-01-05T08:24:09.972Z,98.60
2019-01-05T08:27:17.240Z,98.60
2019-01-05T08:30:18.354Z,98.60
2019-01-05T08:36:58.421Z,98.60
2019-01-05T08:43:24.862Z,98.90
2019-01-05T08:46:27.586Z,99.10
2019-01-05T08:52:35.380Z,99.00
2019-01-05T08:55:36.353Z,99.00
2019-01-05T09:02:16.870Z,99.00
2019-01-05T09:05:23.375Z,98.90
2019-01-05T09:08:44.932Z,98.80
2019-01-05T09:11:52.532Z,98.90
2019-01-05T09:18:18.448Z,99.10
2019-01-05T09:21:19.469Z,98.90
2019-01-05T09:24:42.057Z,99.10
2019-01-05T09:27:44.779Z,99.10
2019-01-05T09:30:47.259Z,99.10
2019-01-05T09:40:45.754Z,99.00
2019-01-05T09:43:48.018Z,99.10
2019-01-05T09:46:50.433Z,99.10
2019-01-05T09:52:57.284Z,98.90
2019-01-05T09:55:58.671Z,98.90
2019-01-05T10:02:05.695Z,98.70
2019-01-05T10:05:08.316Z,98.70
2019-01-05T10:08:12.099Z,98.70
2019-01-05T10:11:33.981Z,98.70
2019-01-05T10:18:18.179Z,98.60
2019-01-05T10:21:23.997Z,98.50
2019-01-05T10:24:45.223Z,98.70
2019-01-05T10:27:46.439Z,98.60
2019-01-05T10:31:01.571Z,98.50
2019-01-05T10:37:26.303Z,98.50
2019-01-05T10:40:46.941Z,98.60
2019-01-05T10:43:50.777Z,98.50
2019-01-05T10:47:10.883Z,98.50
2019-01-05T10:50:11.922Z,98.30
2019-01-05T10:53:32.044Z,98.40
2019-01-05T10:56:33.088Z,98.40
2019-01-05T10:59:37.024Z,98.40
2019-01-05T11:02:37.879Z,98.50
2019-01-05T11:09:09.729Z,98.50
2019-01-05T11:12:31.031Z,98.50
2019-01-05T11:18:37.774Z,98.50
2019-01-05T11:21:44.495Z,98.40
2019-01-05T11:25:03.079Z,98.60
2019-01-05T11:28:24.915Z,98.30
2019-01-05T11:31:26.896Z,98.00
2019-01-05T11:34:31.405Z,98.00
2019-01-05T11:40:39.892Z,98.00
2019-01-05T11:53:18.985Z,97.90
2019-01-05T11:56:39.314Z,97.70
2019-01-05T11:59:41.167Z,97.70
2019-01-05T12:02:42.507Z,97.70
2019-01-05T12:05:44.071Z,98.00
2019-01-05T12:08:45.177Z,98.20
2019-01-05T12:11:46.110Z,98.40
2019-01-05T12:17:59.021Z,97.40
2019-01-05T12:21:00.271Z,97.90
2019-01-05T12:24:01.248Z,98.30
2019-01-05T12:27:02.230Z,98.30
2019-01-05T12:30:03.375Z,98.40
2019-01-05T12:33:04.565Z,98.40
2019-01-05T12:36:05.735Z,98.40
2019-01-05T12:39:07.332Z,98.30
2019-01-05T12:42:08.211Z,98.50
2019-01-05T12:45:08.834Z,98.50
2019-01-05T12:48:31.164Z,98.40
2019-01-05T12:51:39.594Z,98.40
2019-01-05T12:54:37.613Z,98.50
2019-01-05T12:57:58.685Z,99.00
2019-01-05T13:00:59.573Z,99.20
2019-01-05T13:04:07.069Z,99.20
2019-01-05T13:07:33.676Z,99.20
2019-01-05T13:10:55.993Z,99.10
2019-01-05T13:13:56.703Z,98.80
2019-01-05T13:17:17.946Z,98.80
2019-01-05T13:20:21.723Z,98.80
2019-01-05T13:26:38.794Z,99.00
2019-01-05T13:29:41.927Z,98.90
2019-01-05T13:32:43.101Z,98.80
2019-01-05T13:38:49.765Z,99.30
2019-01-05T13:42:05.000Z,99.00
2019-01-05T13:45:17.095Z,99.40
2019-01-05T13:48:07.417Z,98.80
2019-01-05T13:51:28.633Z,99.00
2019-01-05T14:00:57.705Z,99.00
2019-01-05T14:04:00.142Z,99.20
2019-01-05T14:07:04.956Z,98.80
2019-01-05T14:10:26.961Z,98.80
2019-01-05T14:16:32.650Z,99.40
2019-01-05T14:19:49.775Z,99.50
2019-01-05T14:22:51.280Z,99.30
2019-01-05T14:25:52.205Z,99.40
2019-01-05T14:28:56.178Z,99.00
2019-01-05T14:35:28.924Z,99.20
2019-01-05T14:38:31.557Z,99.00
2019-01-05T14:44:37.281Z,99.10
2019-01-05T14:47:38.331Z,99.30
2019-01-05T14:50:58.660Z,99.60
2019-01-05T14:54:19.847Z,99.60
2019-01-05T14:57:21.131Z,99.80
2019-01-05T15:00:28.576Z,99.90
2019-01-05T15:03:49.501Z,99.40
2019-01-05T15:06:51.800Z,98.60
2019-01-05T15:09:53.334Z,99.10
2019-01-05T15:13:14.532Z,98.50
2019-01-05T15:16:21.556Z,97.80
2019-01-05T15:19:25.545Z,97.20
2019-01-05T15:22:48.518Z,97.80
2019-01-05T15:28:55.042Z,98.50
2019-01-05T15:31:55.980Z,99.10
2019-01-05T15:38:00.376Z,98.90
2019-01-05T15:44:05.975Z,99.30
2019-01-05T15:46:57.486Z,99.50
2019-01-05T15:50:05.957Z,99.70
2019-01-05T15:53:14.749Z,99.70
2019-01-05T15:56:23.214Z,99.80
2019-01-05T15:59:32.119Z,99.80
2019-01-05T16:03:00.037Z,99.80
2019-01-05T16:06:08.569Z,99.90
2019-01-05T16:09:17.034Z,99.90
2019-01-05T16:12:25.544Z,99.90
2019-01-05T16:15:34.405Z,99.80
2019-01-05T16:18:42.910Z,99.80
2019-01-05T16:21:51.824Z,99.90
2019-01-05T16:25:00.362Z,99.90
2019-01-05T16:28:08.880Z,99.80
2019-01-05T16:31:17.338Z,99.90
2019-01-05T16:34:25.867Z,99.90
2019-01-05T16:40:31.009Z,99.90
2019-01-05T16:43:27.265Z,99.90
2019-01-05T16:49:30.875Z,99.90
2019-01-05T16:55:58.892Z,99.90
2019-01-05T16:59:00.119Z,99.90
2019-01-05T17:02:03.533Z,99.90
2019-01-05T17:05:05.850Z,99.90
2019-01-05T17:11:11.633Z,99.90
2019-01-05T17:14:15.705Z,99.90
2019-01-05T17:17:37.240Z,99.90
2019-01-05T17:20:41.361Z,99.90
2019-01-05T17:24:02.948Z,99.90
2019-01-05T17:30:08.332Z,99.90
2019-01-05T17:33:09.284Z,99.90
2019-01-05T17:36:13.683Z,99.90
2019-01-05T17:39:14.654Z,99.90
2019-01-05T17:42:15.307Z,99.90
2019-01-05T17:45:21.832Z,99.90
2019-01-05T17:48:17.582Z,99.90
2019-01-05T17:51:19.779Z,99.90
2019-01-05T17:54:22.007Z,99.90
2019-01-05T17:57:23.188Z,99.90
2019-01-05T18:00:29.994Z,99.90
2019-01-05T18:06:27.370Z,99.90
2019-01-05T18:09:49.102Z,99.90
2019-01-05T18:15:49.231Z,99.90
2019-01-05T18:22:15.987Z,99.80
2019-01-05T18:28:22.507Z,99.90
2019-01-05T18:34:27.666Z,99.70
2019-01-05T18:37:28.612Z,99.80
2019-01-05T18:40:29.676Z,99.80
2019-01-05T18:43:31.061Z,99.80
2019-01-05T18:46:32.399Z,99.70
2019-01-05T18:49:58.607Z,99.60
2019-01-05T18:52:55.084Z,99.60
2019-01-05T18:56:15.489Z,99.70
2019-01-05T18:59:24.016Z,99.70
2019-01-05T19:05:43.865Z,99.40
2019-01-05T19:08:52.369Z,99.60
2019-01-05T19:12:08.374Z,99.60
2019-01-05T19:15:30.418Z,99.60
2019-01-05T19:18:38.898Z,99.60
2019-01-05T19:21:47.435Z,99.90
2019-01-05T19:24:55.887Z,99.90
2019-01-05T19:28:04.420Z,99.80
2019-01-05T19:31:12.902Z,99.90
2019-01-05T19:34:21.478Z,99.80
2019-01-05T19:37:42.287Z,99.70
2019-01-05T19:40:44.761Z,99.70
2019-01-05T19:43:48.619Z,99.60
2019-01-05T19:47:09.226Z,99.70
2019-01-05T19:53:14.688Z,99.60
2019-01-05T19:56:15.730Z,99.40
2019-01-05T19:59:16.420Z,99.50
2019-01-05T20:02:15.086Z,99.70
2019-01-05T20:05:16.366Z,99.60
2019-01-05T20:08:17.782Z,99.70
2019-01-05T20:11:38.441Z,99.50
2019-01-05T20:14:42.191Z,99.50
2019-01-05T20:18:08.616Z,99.60
2019-01-05T20:24:39.969Z,99.80
2019-01-05T20:28:02.072Z,99.70
2019-01-05T20:31:03.045Z,99.50
2019-01-05T20:34:04.096Z,99.60
2019-01-05T20:40:04.794Z,99.50
2019-01-05T20:43:07.550Z,99.50
2019-01-05T20:49:14.631Z,99.50
2019-01-05T20:55:21.024Z,99.50
2019-01-05T21:01:29.441Z,99.60
2019-01-05T21:07:34.296Z,99.80
2019-01-05T21:10:36.435Z,99.70
2019-01-05T21:13:38.548Z,99.50
2019-01-05T21:16:40.695Z,99.60
2019-01-05T21:20:02.729Z,99.70
2019-01-05T21:22:54.598Z,99.60
2019-01-05T21:29:20.233Z,99.80
2019-01-05T21:32:21.556Z,99.80
2019-01-05T21:38:27.494Z,99.50
2019-01-05T21:41:28.710Z,99.50
2019-01-05T21:47:54.253Z,99.50
2019-01-05T21:54:25.889Z,99.50
2019-01-05T21:57:21.739Z,99.60
2019-01-05T22:03:27.502Z,99.40
2019-01-05T22:06:29.401Z,99.50
2019-01-05T22:12:37.960Z,99.50
2019-01-05T22:16:05.000Z,99.40
2019-01-05T22:19:06.569Z,99.30
2019-01-05T22:22:05.760Z,99.50
2019-01-05T22:31:57.950Z,99.50
2019-01-05T22:35:00.527Z,99.50
2019-01-05T22:38:01.631Z,99.50
2019-01-05T22:41:08.440Z,99.40
2019-01-05T22:44:28.575Z,99.30
2019-01-05T22:47:32.349Z,99.40
2019-01-05T22:50:58.977Z,99.50
2019-01-05T22:57:20.085Z,99.40
2019-01-05T23:00:21.436Z,99.40
2019-01-05T23:06:47.404Z,99.50
2019-01-05T23:09:48.193Z,99.50
2019-01-05T23:13:02.548Z,99.50
2019-01-05T23:16:11.996Z,99.40
2019-01-05T23:22:43.390Z,99.40
2019-01-05T23:25:45.685Z,99.30
2019-01-05T23:28:48.085Z,99.30
2019-01-05T23:31:49.092Z,99.60
2019-01-05T23:38:37.724Z,99.40
2019-01-05T23:41:38.817Z,99.40
2019-01-05T23:44:39.924Z,99.60
2019-01-05T23:47:41.122Z,99.50
2019-01-05T23:51:01.528Z,99.50
2019-01-05T23:57:06.900Z,99.70
